Time;durP1;ratioP1;P1;durP2;ratioP2;P2;SDS_P1;SDS_P2;PMS_P1;PMS_P2;Temp;Humidity;BMP_temperature;BMP_pressure;BME280_temperature;BME280_humidity;BME280_pressure;Samples;Min_cycle;Max_cycle;Signal;HPM_P1;HPM_P2
2022/12/22 03:25:52;;;;;;;18.50;12.60;;;;;;;-0.03;51.03;93979.38;4995417;28;20143;-72
2022/12/22 03:28:26;;;;;;;19.45;12.60;;;;;;;-0.02;50.99;93988.81;4995937;28;20026;-71
2022/12/22 03:30:57;;;;;;;14.98;10.70;;;;;;;0.11;50.68;93983.22;4992004;28;20037;-72
2022/12/22 03:33:23;;;;;;;33.42;20.30;;;;;;;-0.11;50.92;93959.69;4994928;28;20025;-72
2022/12/22 03:35:49;;;;;;;26.85;15.27;;;;;;;-0.13;51.08;93969.59;4994305;28;20040;-73
2022/12/22 03:38:14;;;;;;;21.27;15.55;;;;;;;0.03;50.68;93975.81;4995512;28;20034;-73
2022/12/22 03:40:39;;;;;;;16.33;12.20;;;;;;;-0.03;50.62;93979.38;4993167;28;20488;-74
2022/12/22 03:48:39;;;;;;;31.50;17.15;;;;;;;-0.03;50.69;93982.00;4995698;28;20045;-74
2022/12/22 03:51:05;;;;;;;28.55;17.48;;;;;;;0.03;50.60;93988.88;4992137;28;20029;-73
2022/12/22 03:53:30;;;;;;;30.80;17.58;;;;;;;0.08;50.44;93997.59;4992867;28;20041;-72
2022/12/22 03:55:56;;;;;;;24.77;15.93;;;;;;;-0.00;50.49;93989.38;4993085;28;20064;-74
2022/12/22 03:58:21;;;;;;;23.13;13.82;;;;;;;0.02;50.30;93979.44;4993549;28;20499;-73
2022/12/22 04:00:46;;;;;;;24.13;14.40;;;;;;;0.06;50.27;93980.53;4992875;28;20026;-72
2022/12/22 04:03:12;;;;;;;25.85;14.77;;;;;;;0.18;50.20;93987.25;4993827;28;20099;-74
2022/12/22 04:05:38;;;;;;;20.60;13.45;;;;;;;0.16;50.24;93991.13;4996549;28;20461;-72
2022/12/22 04:08:04;;;;;;;24.05;14.63;;;;;;;0.07;50.39;93989.97;4997692;28;20414;-73
2022/12/22 04:13:13;;;;;;;29.52;15.52;;;;;;;-0.01;50.79;93991.19;4997796;28;20097;-72
2022/12/22 04:15:39;;;;;;;25.10;15.25;;;;;;;-0.07;50.57;93979.88;4996761;28;20054;-73
2022/12/22 04:18:04;;;;;;;38.67;17.58;;;;;;;0.02;50.76;93976.84;4998419;28;20637;-73
2022/12/22 04:20:30;;;;;;;28.98;16.48;;;;;;;0.01;50.78;93978.66;4995801;28;20034;-72
2022/12/22 04:22:56;;;;;;;30.35;18.13;;;;;;;-0.00;50.90;93963.22;4996036;28;20551;-72
2022/12/22 04:25:22;;;;;;;26.35;17.15;;;;;;;0.08;50.75;93970.63;4995695;28;20045;-73
2022/12/22 04:27:48;;;;;;;29.40;15.82;;;;;;;0.25;50.53;93976.59;4997282;28;20481;-73
2022/12/22 04:30:13;;;;;;;27.20;16.08;;;;;;;0.26;50.58;93980.78;4996448;28;20052;-74
2022/12/22 04:32:39;;;;;;;24.60;15.63;;;;;;;0.06;50.50;93965.66;4997709;28;20037;-72
2022/12/22 04:35:05;;;;;;;30.60;17.65;;;;;;;-0.08;50.93;93967.03;4997023;28;20030;-72
2022/12/22 04:37:31;;;;;;;35.22;20.40;;;;;;;0.02;50.93;93987.28;4995748;28;20038;-72
2022/12/22 04:39:57;;;;;;;38.25;21.92;;;;;;;-0.04;50.99;93972.59;4996736;28;20492;-72
2022/12/22 04:42:22;;;;;;;31.17;19.98;;;;;;;0.00;50.87;93974.47;4994791;28;20116;-73
2022/12/22 04:44:48;;;;;;;37.55;21.13;;;;;;;0.12;50.65;93982.97;4996488;28;20038;-73
2022/12/22 04:47:13;;;;;;;42.67;23.92;;;;;;;0.16;50.79;93985.88;4997290;28;20030;-73
2022/12/22 04:49:39;;;;;;;37.85;21.67;;;;;;;0.04;50.93;93985.25;4996312;28;20503;-75
2022/12/22 04:52:04;;;;;;;41.20;21.60;;;;;;;-0.02;51.12;93991.44;4997704;28;20409;-73
2022/12/22 04:54:30;;;;;;;28.45;17.38;;;;;;;-0.10;51.18;93980.38;4996471;28;20039;-74
2022/12/22 04:56:55;;;;;;;28.42;17.17;;;;;;;-0.07;51.18;93990.34;4995950;28;20053;-73
2022/12/22 04:59:21;;;;;;;31.77;17.58;;;;;;;-0.03;51.35;93968.94;4997397;28;20041;-73
2022/12/22 05:01:46;;;;;;;32.47;20.40;;;;;;;-0.05;51.16;93977.03;4994890;28;20038;-74
2022/12/22 05:04:12;;;;;;;34.83;20.02;;;;;;;-0.04;51.26;93977.84;4995750;28;20034;-73
2022/12/22 05:06:37;;;;;;;30.35;18.23;;;;;;;0.02;51.16;93971.59;4996524;28;20037;-72
2022/12/22 05:09:02;;;;;;;34.28;20.17;;;;;;;-0.02;51.15;93967.91;4995146;28;20516;-72
2022/12/22 05:11:28;;;;;;;41.95;23.42;;;;;;;-0.28;51.43;93954.50;4993625;28;20030;-73
2022/12/22 05:13:53;;;;;;;49.25;27.13;;;;;;;-0.12;51.55;93977.22;4996639;28;20408;-73
2022/12/22 05:16:19;;;;;;;51.35;29.25;;;;;;;-0.06;51.61;93980.69;4994799;28;20484;-72
2022/12/22 05:18:45;;;;;;;54.30;32.72;;;;;;;-0.21;51.83;93978.66;4996999;28;20030;-73
2022/12/22 05:21:13;;;;;;;52.80;31.30;;;;;;;-0.02;51.75;93988.81;4996215;28;20018;-73
2022/12/22 05:23:39;;;;;;;51.05;29.55;;;;;;;-0.14;51.69;93976.66;4997084;28;20099;-73
2022/12/22 05:26:05;;;;;;;45.78;28.60;;;;;;;-0.03;51.66;93987.22;4995697;28;20049;-72
2022/12/22 05:28:31;;;;;;;46.58;27.90;;;;;;;0.02;51.48;93988.09;4995454;28;20033;-73
2022/12/22 05:30:56;;;;;;;54.53;32.08;;;;;;;-0.17;51.82;93987.59;4994756;28;20048;-72
2022/12/22 05:33:22;;;;;;;50.22;29.52;;;;;;;-0.17;51.91;93992.81;4995613;28;20029;-72
2022/12/22 05:35:47;;;;;;;55.05;30.88;;;;;;;-0.19;51.98;93988.88;4994853;28;20044;-73
2022/12/22 05:38:13;;;;;;;48.30;28.55;;;;;;;-0.19;52.00;93986.28;4997174;28;20045;-73
2022/12/22 05:40:38;;;;;;;36.92;23.67;;;;;;;-0.25;51.91;93988.03;4994424;28;20060;-73
2022/12/22 05:43:04;;;;;;;32.30;21.23;;;;;;;-0.30;51.97;93987.97;4994666;28;20354;-72
2022/12/22 05:45:29;;;;;;;38.35;21.95;;;;;;;-0.32;52.00;93974.31;4993928;28;20022;-74
2022/12/22 05:47:55;;;;;;;38.03;22.38;;;;;;;-0.28;52.06;93982.47;4994568;28;20034;-72
2022/12/22 05:50:23;;;;;;;39.63;22.08;;;;;;;-0.22;52.01;93987.53;4996887;28;20038;-71
2022/12/22 05:52:49;;;;;;;35.67;22.35;;;;;;;-0.26;52.17;93986.44;4995231;28;20045;-72
2022/12/22 05:55:15;;;;;;;35.10;22.27;;;;;;;-0.26;52.13;93986.44;4996912;28;20038;-72
2022/12/22 05:57:41;;;;;;;39.08;24.55;;;;;;;-0.26;52.08;93980.41;4994303;28;20041;-72
2022/12/22 06:00:13;;;;;;;36.53;23.55;;;;;;;-0.25;52.05;93982.78;4993467;28;20389;-72
2022/12/22 06:02:39;;;;;;;36.17;19.58;;;;;;;-0.27;51.95;93989.28;4993857;28;20045;-72
2022/12/22 06:05:05;;;;;;;32.80;19.13;;;;;;;-0.42;51.86;93955.91;4992170;28;20141;-71
2022/12/22 06:07:31;;;;;;;41.60;21.17;;;;;;;-0.26;52.10;93991.66;4993749;28;20068;-72
2022/12/22 06:09:56;;;;;;;31.55;19.50;;;;;;;-0.23;51.84;93996.41;4992062;28;20049;-73
2022/12/22 06:12:21;;;;;;;33.90;20.33;;;;;;;-0.26;52.08;93991.66;4996642;28;20032;-71
2022/12/22 06:14:47;;;;;;;35.70;20.45;;;;;;;-0.32;52.31;93984.78;4993167;28;20924;-72
2022/12/22 06:17:12;;;;;;;35.85;18.95;;;;;;;-0.31;52.35;93983.75;4993817;28;20492;-72
2022/12/22 06:19:37;;;;;;;33.13;19.95;;;;;;;-0.43;52.28;93972.59;4990223;28;20047;-72
2022/12/22 06:22:03;;;;;;;36.88;22.63;;;;;;;-0.47;52.20;93966.28;4991300;28;20511;-72
2022/12/22 06:24:28;;;;;;;40.40;23.42;;;;;;;-0.35;52.57;93992.31;4988012;28;20112;-73
2022/12/22 06:26:54;;;;;;;36.05;23.77;;;;;;;-0.23;52.33;93996.41;4990261;28;20038;-73
2022/12/22 06:29:19;;;;;;;51.75;28.02;;;;;;;-0.20;52.53;93995.94;4986928;28;20861;-73
2022/12/22 06:31:46;;;;;;;47.60;27.92;;;;;;;-0.25;53.11;93998.47;4990952;28;20469;-72
2022/12/22 06:34:11;;;;;;;57.13;34.38;;;;;;;-0.27;53.58;93995.31;4989869;28;20045;-72
2022/12/22 06:36:37;;;;;;;55.83;32.50;;;;;;;-0.26;53.33;93999.50;5004915;28;20471;-72
2022/12/22 06:39:04;;;;;;;57.13;36.53;;;;;;;-0.27;53.47;94005.75;4992787;28;20558;-72
2022/12/22 06:44:13;;;;;;;57.42;32.97;;;;;;;-0.31;53.61;93996.03;4991965;28;20041;-72
2022/12/22 06:46:39;;;;;;;66.05;39.08;;;;;;;-0.24;53.47;93996.66;4994857;28;20516;-72
2022/12/22 06:49:04;;;;;;;59.47;37.75;;;;;;;-0.16;53.46;93999.63;4995872;28;20079;-73
2022/12/22 06:51:30;;;;;;;65.63;39.20;;;;;;;-0.09;53.48;94008.09;4992547;28;20025;-72
2022/12/22 06:53:55;;;;;;;55.92;36.80;;;;;;;0.04;53.43;94011.38;5010696;28;20137;-72
2022/12/22 06:56:20;;;;;;;87.43;53.00;;;;;;;0.10;53.46;94010.44;4991493;28;20038;-73
2022/12/22 06:58:46;;;;;;;87.47;55.33;;;;;;;0.09;53.69;94003.59;4986930;28;20594;-74
2022/12/22 07:01:12;;;;;;;97.70;57.53;;;;;;;0.18;53.57;94007.38;4990579;28;20038;-74
2022/12/22 07:03:37;;;;;;;93.05;56.47;;;;;;;0.10;53.61;93998.16;4987844;28;20033;-73
2022/12/22 07:06:02;;;;;;;93.07;56.58;;;;;;;0.10;53.69;93990.28;4992163;28;20389;-73
2022/12/22 07:08:28;;;;;;;85.28;52.97;;;;;;;0.28;53.74;94002.25;4992773;28;20038;-73
2022/12/22 07:10:59;;;;;;;88.07;51.55;;;;;;;0.22;53.89;94009.25;4993381;28;20038;-73
2022/12/22 07:13:31;;;;;;;99.82;59.33;;;;;;;0.26;53.88;94014.78;4992438;28;20038;-72
2022/12/22 07:15:57;;;;;;;101.22;58.67;;;;;;;0.34;53.74;94014.38;4990510;28;20049;-71
2022/12/22 07:18:23;;;;;;;105.70;61.15;;;;;;;0.43;53.41;94014.72;4992286;28;20024;-72
2022/12/22 07:20:49;;;;;;;103.72;59.80;;;;;;;0.50;53.28;94013.50;4989397;28;20409;-73
2022/12/22 07:23:14;;;;;;;99.95;60.55;;;;;;;0.57;53.07;94001.03;4990006;28;20591;-72
2022/12/22 07:25:39;;;;;;;101.28;62.83;;;;;;;0.64;53.03;94009.44;4991443;28;20592;-72
2022/12/22 07:28:06;;;;;;;112.05;61.17;;;;;;;0.64;53.22;94001.59;4990776;28;20088;-72
2022/12/22 07:30:31;;;;;;;101.68;62.92;;;;;;;0.74;53.01;94006.94;4988659;28;20045;-72
2022/12/22 07:32:57;;;;;;;110.90;66.10;;;;;;;0.50;53.66;94010.88;4990205;28;20041;-72
2022/12/22 07:35:22;;;;;;;113.10;63.85;;;;;;;0.41;54.00;94007.13;4991956;28;20030;-73
2022/12/22 07:37:48;;;;;;;104.35;62.55;;;;;;;0.30;54.40;94005.44;4986346;28;21072;-73
2022/12/22 07:40:13;;;;;;;105.78;60.78;;;;;;;0.57;53.98;94016.72;4999991;28;20078;-72
2022/12/22 07:42:45;;;;;;;112.18;64.68;;;;;;;0.74;53.63;94016.66;4984960;28;20311;-73
2022/12/22 07:45:15;;;;;;;94.13;61.85;;;;;;;0.81;53.38;94017.22;4987489;28;20461;-71
2022/12/22 07:47:41;;;;;;;100.00;60.45;;;;;;;0.95;52.95;94020.22;4987408;28;20049;-73
2022/12/22 07:50:24;;;;;;;109.80;67.30;;;;;;;0.97;53.00;94026.03;4986214;28;20046;-72
2022/12/22 07:52:52;;;;;;;106.82;65.53;;;;;;;1.14;52.61;94031.94;5003241;28;20049;-74
2022/12/22 07:55:18;;;;;;;111.38;68.22;;;;;;;1.15;52.90;94017.78;4989355;28;20033;-72
2022/12/22 07:57:44;;;;;;;117.35;68.55;;;;;;;1.17;52.73;94006.03;4983327;28;20464;-72
2022/12/22 08:00:11;;;;;;;125.13;79.35;;;;;;;1.02;53.64;94007.72;4978768;28;20025;-73
2022/12/22 08:02:36;;;;;;;113.57;72.13;;;;;;;1.06;53.88;94008.81;4987514;28;20543;-72
2022/12/22 08:05:02;;;;;;;118.50;72.70;;;;;;;1.24;53.31;94011.06;4977343;28;20042;-72
2022/12/22 08:07:27;;;;;;;127.47;73.40;;;;;;;1.10;53.41;93994.16;4985395;28;20478;-72
2022/12/22 08:09:53;;;;;;;129.65;75.13;;;;;;;1.30;53.25;93991.72;4983352;28;20022;-72
2022/12/22 08:12:18;;;;;;;117.35;74.22;;;;;;;1.43;52.92;93990.50;4986322;28;20026;-72
2022/12/22 08:14:44;;;;;;;123.50;72.50;;;;;;;1.49;52.36;93992.91;4982593;28;20046;-73
2022/12/22 08:17:13;;;;;;;108.32;68.85;;;;;;;1.37;52.45;94008.03;4984180;28;20033;-73
2022/12/22 08:19:38;;;;;;;118.72;72.57;;;;;;;1.60;51.67;93999.81;4986648;28;20562;-72
2022/12/22 08:22:03;;;;;;;116.38;71.18;;;;;;;1.53;51.86;93978.25;4979769;28;20038;-73
2022/12/22 08:24:29;;;;;;;115.35;70.38;;;;;;;1.96;50.63;93992.19;4985997;28;20491;-72
2022/12/22 08:27:00;;;;;;;113.80;73.93;;;;;;;1.90;50.92;93993.19;4980840;28;20061;-72
2022/12/22 08:29:32;;;;;;;113.50;73.95;;;;;;;1.62;51.44;93981.97;4983191;28;20030;-72
2022/12/22 08:31:59;;;;;;;120.95;71.03;;;;;;;1.50;51.84;94001.56;4978073;28;20057;-72
2022/12/22 08:34:24;;;;;;;115.60;67.80;;;;;;;1.52;52.06;94008.13;4986843;28;20068;-72
2022/12/22 08:36:52;;;;;;;111.68;71.03;;;;;;;1.66;51.68;94004.03;4986233;28;20026;-73
2022/12/22 08:39:20;;;;;;;125.50;73.78;;;;;;;1.87;51.31;93991.06;4989614;28;20413;-72
2022/12/22 08:41:49;;;;;;;118.25;69.65;;;;;;;1.91;51.41;94000.03;4988760;28;20923;-73
2022/12/22 08:44:15;;;;;;;115.75;74.72;;;;;;;1.99;51.17;94004.78;4987392;28;20033;-73
2022/12/22 08:46:41;;;;;;;118.57;71.82;;;;;;;1.63;51.44;93999.28;4980183;28;20096;-72
2022/12/22 08:49:06;;;;;;;106.30;68.70;;;;;;;1.44;52.56;93984.22;4983385;28;20041;-72
2022/12/22 08:51:32;;;;;;;107.32;68.65;;;;;;;1.50;52.17;93976.13;4988376;28;20576;-72
2022/12/22 08:53:57;;;;;;;107.53;69.43;;;;;;;1.63;51.88;93988.78;4990942;28;20041;-72
2022/12/22 08:56:23;;;;;;;108.68;68.28;;;;;;;1.54;52.17;93979.03;4992097;28;20060;-73
2022/12/22 08:58:48;;;;;;;119.20;72.70;;;;;;;0.87;54.21;93986.66;4990135;28;20030;-72
2022/12/22 09:01:16;;;;;;;117.70;71.22;;;;;;;1.29;53.32;93974.41;4992696;28;20456;-72
2022/12/22 09:03:41;;;;;;;114.10;71.15;;;;;;;1.77;52.60;93976.03;4986715;28;20607;-73
2022/12/22 09:06:06;;;;;;;112.38;70.82;;;;;;;1.67;52.15;93953.16;4992574;28;20034;-73
2022/12/22 09:08:32;;;;;;;114.30;67.95;;;;;;;1.96;51.53;93964.09;4990245;28;20497;-72
2022/12/22 09:11:02;;;;;;;117.53;67.78;;;;;;;2.15;51.22;93969.69;4991141;28;20040;-73
2022/12/22 09:13:28;;;;;;;105.82;67.78;;;;;;;1.99;51.17;93933.94;4991606;28;20041;-72
2022/12/22 09:15:53;;;;;;;101.72;65.00;;;;;;;2.34;50.63;93962.16;5006316;28;20068;-72
2022/12/22 09:18:18;;;;;;;106.05;63.05;;;;;;;1.95;51.04;93946.00;4991169;28;20025;-74
2022/12/22 09:20:44;;;;;;;99.70;66.22;;;;;;;2.29;50.94;93949.81;4988438;28;20117;-72
2022/12/22 09:23:09;;;;;;;107.63;67.45;;;;;;;1.94;51.48;93957.53;4988014;28;20049;-72
2022/12/22 09:25:35;;;;;;;102.57;65.85;;;;;;;2.21;50.73;93937.16;4991560;28;20042;-73
2022/12/22 09:28:00;;;;;;;98.47;64.10;;;;;;;2.47;50.22;93930.16;4986618;28;20843;-73
2022/12/22 09:30:25;;;;;;;104.78;63.95;;;;;;;2.15;50.58;93937.41;4994208;28;20033;-73
2022/12/22 09:32:53;;;;;;;100.22;64.55;;;;;;;2.62;49.83;93942.53;4987940;28;20050;-72
2022/12/22 09:35:19;;;;;;;104.10;61.65;;;;;;;2.49;50.25;93939.38;4990165;28;20741;-72
2022/12/22 09:37:44;;;;;;;100.05;62.95;;;;;;;2.91;49.16;93941.78;4990553;28;20034;-73
2022/12/22 09:40:10;;;;;;;109.55;68.43;;;;;;;2.87;48.85;93943.34;4989706;28;20033;-72
2022/12/22 09:42:37;;;;;;;107.68;65.72;;;;;;;2.91;49.42;93948.88;4992042;28;20726;-72
2022/12/22 09:45:03;;;;;;;106.13;65.15;;;;;;;2.92;48.43;93938.09;4986681;28;20034;-72
2022/12/22 09:47:37;;;;;;;100.43;66.93;;;;;;;2.80;49.44;93945.44;4989993;28;20044;-72
2022/12/22 09:50:07;;;;;;;110.33;66.03;;;;;;;3.10;48.95;93942.03;4987941;28;20053;-74
2022/12/22 09:52:33;;;;;;;104.60;67.25;;;;;;;2.74;49.51;93940.44;4987033;28;20057;-72
2022/12/22 09:54:58;;;;;;;106.35;67.90;;;;;;;2.78;49.68;93921.28;4985285;28;20066;-71
2022/12/22 09:57:29;;;;;;;132.82;66.78;;;;;;;3.09;48.91;93927.31;4989453;28;20026;-72
2022/12/22 09:59:56;;;;;;;107.15;66.30;;;;;;;3.08;49.28;93924.97;4990718;28;20042;-72
2022/12/22 10:02:40;;;;;;;107.22;67.22;;;;;;;3.21;49.02;93924.44;4991737;28;20769;-72
2022/12/22 10:06:14;;;;;;;120.30;73.43;;;;;;;2.88;49.89;93915.25;4991346;28;20050;-72
2022/12/22 10:08:39;;;;;;;118.18;74.38;;;;;;;3.42;49.17;93906.81;4941389;28;20085;-73
2022/12/22 10:11:06;;;;;;;115.03;74.50;;;;;;;3.73;47.84;93897.75;4947082;28;20039;-72
2022/12/22 10:13:31;;;;;;;125.72;80.05;;;;;;;3.43;48.62;93889.97;4970882;28;20050;-71
2022/12/22 10:15:57;;;;;;;120.70;79.45;;;;;;;3.29;49.13;93890.50;4987489;28;20112;-72
2022/12/22 10:18:25;;;;;;;130.25;81.07;;;;;;;3.43;48.72;93889.97;4986155;28;20037;-72
2022/12/22 10:21:14;;;;;;;121.38;77.20;;;;;;;3.64;48.40;93891.47;4989264;28;20034;-72
2022/12/22 10:23:44;;;;;;;126.35;77.07;;;;;;;3.51;48.75;93892.84;5005148;28;20168;-73
2022/12/22 10:26:28;;;;;;;121.75;76.05;;;;;;;3.87;48.03;93890.88;4987962;28;20129;-73
2022/12/22 10:29:13;;;;;;;139.70;78.93;;;;;;;3.88;48.20;93881.94;4969113;28;20452;-72
2022/12/22 10:32:02;;;;;;;131.65;88.13;;;;;;;4.26;47.42;93883.84;4985174;28;20042;-73
2022/12/22 10:34:28;;;;;;;134.93;80.95;;;;;;;4.20;47.25;93871.81;4988788;28;20072;-72
2022/12/22 10:37:00;;;;;;;130.05;77.32;;;;;;;4.30;46.67;93867.56;4990105;28;20120;-73
2022/12/22 10:39:32;;;;;;;125.00;81.38;;;;;;;4.55;46.56;93865.53;4989297;28;20088;-72
2022/12/22 10:42:07;;;;;;;120.05;76.82;;;;;;;4.76;46.03;93860.13;4990716;28;20034;-73
2022/12/22 10:44:36;;;;;;;125.60;77.15;;;;;;;4.66;46.24;93855.72;4987961;28;20036;-74
2022/12/22 10:47:19;;;;;;;119.00;76.63;;;;;;;4.46;46.70;93863.75;4988316;28;20049;-72
2022/12/22 10:49:47;;;;;;;128.07;80.10;;;;;;;4.05;47.13;93848.19;4989037;28;20457;-72
2022/12/22 10:52:20;;;;;;;126.38;79.75;;;;;;;4.14;47.12;93859.72;4991295;28;20034;-72
2022/12/22 10:54:46;;;;;;;125.57;78.18;;;;;;;4.15;47.33;93861.28;4986597;28;20025;-72
2022/12/22 10:57:11;;;;;;;129.45;79.70;;;;;;;4.25;47.22;93860.44;4990673;28;20142;-72
2022/12/22 10:59:47;;;;;;;117.90;75.85;;;;;;;3.93;47.26;93817.97;4991233;28;20046;-72
2022/12/22 11:02:25;;;;;;;113.65;75.05;;;;;;;4.47;46.50;93839.00;4988515;28;20518;-73
2022/12/22 11:04:52;;;;;;;123.22;74.20;;;;;;;4.36;46.49;93850.66;4988311;28;20468;-73
2022/12/22 11:07:18;;;;;;;120.72;76.75;;;;;;;4.49;46.43;93840.31;4986061;28;20048;-72
2022/12/22 11:09:43;;;;;;;114.57;72.15;;;;;;;4.60;46.39;93835.78;4989709;28;20565;-72
2022/12/22 11:12:20;;;;;;;119.63;72.90;;;;;;;4.88;45.55;93813.94;4988266;28;20034;-74
2022/12/22 11:15:21;;;;;;;123.43;72.80;;;;;;;4.51;46.33;93824.22;4989916;28;20054;-73
2022/12/22 11:18:07;;;;;;;121.93;73.13;;;;;;;4.51;46.51;93826.84;4985747;28;20046;-72
2022/12/22 11:20:56;;;;;;;113.57;67.03;;;;;;;4.73;45.76;93813.28;4985278;28;20038;-72
2022/12/22 11:23:37;;;;;;;105.03;67.40;;;;;;;4.77;45.39;93822.19;4971300;28;20444;-73
2022/12/22 11:26:10;;;;;;;106.35;65.03;;;;;;;4.38;45.99;93817.75;4982095;28;20041;-72
2022/12/22 11:28:50;;;;;;;101.95;64.63;;;;;;;4.59;45.67;93824.44;4985937;28;20099;-74
2022/12/22 11:31:38;;;;;;;98.28;60.80;;;;;;;4.84;44.92;93815.56;4988647;28;20049;-72
2022/12/22 11:34:16;;;;;;;97.45;63.67;;;;;;;5.01;44.74;93815.91;4989451;28;20096;-72
2022/12/22 11:37:07;;;;;;;110.47;62.13;;;;;;;5.05;44.19;93811.66;4989311;28;20492;-73
2022/12/22 11:40:14;;;;;;;101.82;65.72;;;;;;;4.77;44.67;93807.16;4990264;28;20060;-72
2022/12/22 11:43:09;;;;;;;103.60;62.75;;;;;;;4.91;44.65;93815.22;4987128;28;20140;-72
2022/12/22 11:45:35;;;;;;;112.10;62.50;;;;;;;5.20;44.05;93807.28;4986952;28;20761;-73
2022/12/22 11:48:25;;;;;;;99.45;63.03;;;;;;;5.49;43.46;93802.75;4966593;28;20053;-74
2022/12/22 11:50:55;;;;;;;97.45;61.72;;;;;;;5.44;43.28;93805.44;4986574;28;20042;-73
2022/12/22 11:53:59;;;;;;;99.30;61.55;;;;;;;5.37;43.40;93810.28;5003478;28;20038;-73
2022/12/22 11:56:43;;;;;;;96.95;62.45;;;;;;;5.64;43.18;93801.81;4989181;28;20153;-73
2022/12/22 11:59:34;;;;;;;109.32;64.60;;;;;;;5.71;43.25;93792.50;4975589;28;20038;-74
2022/12/22 12:02:14;;;;;;;104.25;60.88;;;;;;;5.68;43.10;93800.16;4986405;28;20041;-74
2022/12/22 12:05:06;;;;;;;101.80;62.08;;;;;;;5.92;42.93;93799.06;4987215;28;20050;-74
2022/12/22 12:07:47;;;;;;;98.32;63.92;;;;;;;6.00;42.52;93782.59;4986013;28;20153;-72
2022/12/22 12:10:43;;;;;;;104.40;65.63;;;;;;;6.23;43.15;93793.41;4999625;28;20049;-71
2022/12/22 12:13:45;;;;;;;100.95;64.97;;;;;;;6.05;42.05;93786.25;4981057;28;20526;-71
2022/12/22 12:16:43;;;;;;;101.93;64.25;;;;;;;6.27;42.48;93778.56;4979709;28;21033;-72
2022/12/22 12:19:41;;;;;;;101.82;65.38;;;;;;;6.53;41.37;93776.31;4968559;28;20049;-72
2022/12/22 12:22:20;;;;;;;102.13;66.38;;;;;;;6.56;41.07;93775.75;4971479;28;20742;-72
2022/12/22 12:25:10;;;;;;;105.90;66.20;;;;;;;6.86;42.22;93781.31;4983390;28;20026;-72
2022/12/22 12:27:47;;;;;;;110.13;68.57;;;;;;;6.53;41.79;93777.13;4987742;28;20064;-71
2022/12/22 12:30:21;;;;;;;133.52;69.25;;;;;;;6.37;42.49;93775.78;4967606;28;20640;-72
2022/12/22 12:32:53;;;;;;;106.05;69.50;;;;;;;6.69;41.78;93770.53;4998079;28;20046;-72
2022/12/22 12:35:31;;;;;;;110.47;66.53;;;;;;;6.80;41.55;93777.19;4975137;28;20485;-73
2022/12/22 12:38:06;;;;;;;107.90;70.88;;;;;;;6.85;41.85;93763.88;4982275;28;20502;-73
2022/12/22 12:40:53;;;;;;;98.07;67.57;;;;;;;7.07;43.33;93775.69;4989967;28;20129;-73
2022/12/22 12:43:19;;;;;;;105.30;69.00;;;;;;;7.21;41.44;93765.91;4986936;28;20042;-73
2022/12/22 12:45:49;;;;;;;99.10;69.47;;;;;;;7.16;43.08;93768.66;4970516;28;20491;-72
2022/12/22 12:48:20;;;;;;;107.50;67.57;;;;;;;7.18;43.02;93771.78;4971705;28;20026;-72
2022/12/22 12:50:50;;;;;;;103.63;67.03;;;;;;;7.09;44.02;93774.31;4973093;28;20046;-71
2022/12/22 12:53:17;;;;;;;84.35;53.45;;;;;;;7.41;41.13;93757.59;4978672;28;20153;-72
2022/12/22 12:56:07;;;;;;;81.30;51.22;;;;;;;7.28;40.59;93747.81;4990514;28;20573;-73
2022/12/22 12:58:38;;;;;;;82.60;51.42;;;;;;;7.40;40.40;93763.97;4989432;28;20543;-72
2022/12/22 13:01:09;;;;;;;110.70;64.22;;;;;;;7.34;40.76;93765.13;4994111;28;20042;-72
2022/12/22 13:03:38;;;;;;;166.82;99.85;;;;;;;7.30;41.18;93766.78;4988735;28;20041;-73
2022/12/22 13:06:07;;;;;;;137.02;86.45;;;;;;;7.20;41.22;93764.34;4985990;28;20053;-72
2022/12/22 13:09:01;;;;;;;101.63;62.70;;;;;;;7.13;41.05;93759.44;4987757;28;20038;-72
2022/12/22 13:11:35;;;;;;;123.65;74.40;;;;;;;7.02;41.24;93757.28;4953918;28;20143;-73
2022/12/22 13:14:02;;;;;;;171.40;100.60;;;;;;;6.97;41.59;93765.28;4988867;28;20100;-72
2022/12/22 13:16:30;;;;;;;82.15;53.30;;;;;;;6.95;41.19;93762.13;4993001;28;20038;-72
2022/12/22 13:18:58;;;;;;;65.22;40.88;;;;;;;6.97;41.14;93760.00;4990291;28;20694;-72
2022/12/22 13:21:27;;;;;;;58.88;40.40;;;;;;;6.92;41.11;93762.72;4993068;28;20133;-72
2022/12/22 13:24:28;;;;;;;71.72;44.65;;;;;;;6.85;41.42;93763.88;4991344;28;20041;-71
2022/12/22 13:26:59;;;;;;;64.95;44.13;;;;;;;6.78;41.34;93755.56;4981440;28;20089;-72
2022/12/22 13:29:32;;;;;;;99.82;64.88;;;;;;;6.71;41.56;93747.22;4992203;28;20038;-71
2022/12/22 13:32:23;;;;;;;64.90;40.80;;;;;;;6.70;41.89;93761.50;4988721;28;20100;-73
2022/12/22 13:34:54;;;;;;;50.65;34.08;;;;;;;6.48;43.00;93748.13;4991527;28;20500;-73
2022/12/22 13:37:23;;;;;;;49.90;32.80;;;;;;;6.48;43.54;93763.19;4991987;28;20042;-73
2022/12/22 13:40:38;;;;;;;56.13;32.22;;;;;;;6.42;43.96;93759.84;4986954;28;20022;-73
2022/12/22 13:43:14;;;;;;;53.53;34.10;;;;;;;6.42;44.10;93752.69;4934815;28;20042;-72
2022/12/22 13:45:46;;;;;;;66.30;40.63;;;;;;;6.21;43.92;93748.03;4952881;28;20461;-72
2022/12/22 13:48:25;;;;;;;71.18;38.00;;;;;;;6.22;43.25;93744.28;4978173;28;20229;-72
2022/12/22 13:50:53;;;;;;;55.97;34.90;;;;;;;6.23;42.92;93738.75;4991671;28;20115;-72
2022/12/22 13:53:31;;;;;;;55.60;33.95;;;;;;;6.27;42.13;93741.56;4990123;28;20040;-72
2022/12/22 13:55:57;;;;;;;44.40;29.05;;;;;;;6.32;41.92;93747.56;4983993;28;20050;-73
2022/12/22 13:58:28;;;;;;;48.35;31.60;;;;;;;6.19;41.84;93740.38;4982866;28;20404;-72
2022/12/22 14:01:03;;;;;;;74.53;43.70;;;;;;;6.22;41.97;93746.94;4991742;28;20072;-72
2022/12/22 14:03:28;;;;;;;75.43;48.17;;;;;;;6.16;42.29;93732.25;4984133;28;20021;-71
2022/12/22 14:05:53;;;;;;;79.57;43.75;;;;;;;6.28;42.18;93738.66;4985620;28;20056;-72
2022/12/22 14:08:23;;;;;;;67.47;44.70;;;;;;;6.19;42.46;93731.69;4984876;28;20061;-72
2022/12/22 14:10:49;;;;;;;71.03;45.20;;;;;;;6.19;42.59;93742.25;4983003;28;20132;-72
2022/12/22 14:13:19;;;;;;;91.53;54.03;;;;;;;6.11;42.88;93734.94;4981664;28;20125;-73
2022/12/22 14:15:45;;;;;;;108.85;66.80;;;;;;;6.04;43.41;93730.00;4983649;28;20524;-72
2022/12/22 14:18:18;;;;;;;98.07;59.53;;;;;;;6.02;43.33;93730.28;4983337;28;20124;-72
2022/12/22 14:20:46;;;;;;;74.68;47.83;;;;;;;5.95;43.25;93724.59;4987149;28;20040;-71
2022/12/22 14:23:20;;;;;;;50.22;34.17;;;;;;;6.02;42.97;93729.50;4983468;28;20038;-72
2022/12/22 14:25:46;;;;;;;58.55;35.72;;;;;;;6.00;42.60;93721.91;4985675;28;20073;-73
2022/12/22 14:28:24;;;;;;;45.42;29.60;;;;;;;5.99;42.53;93730.88;4977745;28;20042;-71
2022/12/22 14:30:53;;;;;;;52.75;31.90;;;;;;;5.88;42.76;93733.94;4990046;28;20091;-73
2022/12/22 14:33:28;;;;;;;54.55;33.30;;;;;;;5.85;42.67;93732.66;5005069;28;20061;-74
2022/12/22 14:36:12;;;;;;;57.20;36.60;;;;;;;5.82;43.12;93733.22;4990302;28;20128;-74
2022/12/22 14:38:43;;;;;;;73.18;44.85;;;;;;;5.75;43.21;93735.44;4990716;28;20475;-76
2022/12/22 14:41:42;;;;;;;55.53;39.63;;;;;;;5.73;43.56;93734.91;4990876;28;20048;-77
2022/12/22 14:44:22;;;;;;;60.90;38.35;;;;;;;5.51;43.96;93734.69;5004716;28;20511;-74
2022/12/22 14:47:06;;;;;;;72.65;43.42;;;;;;;5.52;44.24;93736.28;4996296;28;21020;-74
2022/12/22 14:49:33;;;;;;;61.63;40.08;;;;;;;5.57;43.59;93738.84;4991118;28;20030;-75
2022/12/22 14:52:06;;;;;;;57.80;33.22;;;;;;;5.50;43.73;93733.91;4990832;28;20418;-74
2022/12/22 14:54:32;;;;;;;40.45;27.90;;;;;;;5.39;42.58;93734.28;4991434;28;20026;-74
2022/12/22 14:57:08;;;;;;;39.35;26.63;;;;;;;5.35;43.04;93739.38;4991627;28;20512;-75
2022/12/22 14:59:33;;;;;;;30.17;22.27;;;;;;;5.29;42.77;93731.78;4983717;28;20459;-74
2022/12/22 15:02:25;;;;;;;39.20;27.67;;;;;;;5.36;42.82;93743.56;4984627;28;20046;-75
2022/12/22 15:05:07;;;;;;;42.00;28.85;;;;;;;5.24;42.82;93735.25;4986662;28;20043;-74
2022/12/22 15:07:46;;;;;;;29.40;22.42;;;;;;;5.21;42.61;93746.38;4984819;28;20050;-74
2022/12/22 15:10:12;;;;;;;37.00;20.98;;;;;;;5.20;42.52;93749.28;4993159;28;20857;-75
2022/12/22 15:12:37;;;;;;;32.65;20.30;;;;;;;5.01;42.95;93747.38;4984725;28;20048;-74